Time;durP1;ratioP1;P1;durP2;ratioP2;P2;SDS_P1;SDS_P2;PMS_P1;PMS_P2;Temp;Humidity;BMP_temperature;BMP_pressure;BME280_temperature;BME280_humidity;BME280_pressure;Samples;Min_cycle;Max_cycle;Signal;HPM_P1;HPM_P2
2023/07/13 00:02:18;;;;;;;2.70;0.77;;;21.70;81.80;;;;;;5043426;28;20024;-62
2023/07/13 00:04:44;;;;;;;2.13;0.73;;;21.70;82.00;;;;;;5050011;28;20036;-62
2023/07/13 00:07:09;;;;;;;1.85;0.70;;;21.70;82.10;;;;;;5045769;28;20083;-64
2023/07/13 00:09:35;;;;;;;1.02;0.52;;;21.70;82.70;;;;;;5031985;28;20025;-62
2023/07/13 00:12:02;;;;;;;2.90;0.90;;;21.70;83.10;;;;;;5039512;28;20033;-63
2023/07/13 00:14:29;;;;;;;1.85;0.65;;;21.80;83.20;;;;;;5051319;28;20040;-63
2023/07/13 00:16:56;;;;;;;3.65;0.98;;;21.70;83.30;;;;;;5039648;28;20089;-63
2023/07/13 00:19:21;;;;;;;2.13;0.70;;;21.60;83.30;;;;;;5014230;28;20068;-63
2023/07/13 00:21:47;;;;;;;1.58;0.93;;;21.50;83.90;;;;;;5020465;28;20068;-63
2023/07/13 00:24:23;;;;;;;2.17;1.10;;;21.50;84.00;;;;;;5032923;28;20040;-63
2023/07/13 00:26:48;;;;;;;4.45;0.68;;;21.40;84.30;;;;;;5023025;28;20073;-62
2023/07/13 00:29:16;;;;;;;2.05;0.70;;;21.40;84.90;;;;;;5051443;28;20480;-62
2023/07/13 00:31:42;;;;;;;2.10;0.90;;;21.30;85.20;;;;;;5040880;28;20017;-62
2023/07/13 00:34:08;;;;;;;1.75;0.77;;;21.30;85.80;;;;;;5031926;28;20025;-63
2023/07/13 00:36:34;;;;;;;1.02;0.55;;;21.20;86.70;;;;;;5041874;28;20578;-62
2023/07/13 00:38:59;;;;;;;0.77;0.65;;;21.10;87.40;;;;;;5049175;28;20033;-63
2023/07/13 00:41:26;;;;;;;4.05;1.23;;;21.10;88.10;;;;;;5039149;28;20029;-63
2023/07/13 00:43:51;;;;;;;5.63;1.05;;;21.00;88.70;;;;;;5029493;28;20029;-63
2023/07/13 00:46:25;;;;;;;1.80;0.70;;;21.00;89.50;;;;;;5009091;28;20465;-63
2023/07/13 00:48:54;;;;;;;1.98;0.93;;;20.90;89.80;;;;;;5034913;28;20052;-62
2023/07/13 00:51:45;;;;;;;1.52;0.60;;;20.90;89.70;;;;;;5015415;28;20057;-62
2023/07/13 00:54:14;;;;;;;;;;;20.90;89.80;;;;;;5018869;28;20078;-63
2023/07/13 00:56:43;;;;;;;3.03;0.88;;;20.90;90.00;;;;;;5039050;28;20340;-63
2023/07/13 00:59:11;;;;;;;1.02;0.57;;;20.70;90.20;;;;;;5014247;28;20615;-63
2023/07/13 01:01:37;;;;;;;3.72;0.70;;;20.70;90.50;;;;;;5033569;28;20581;-63
2023/07/13 01:04:07;;;;;;;1.65;0.68;;;20.60;90.90;;;;;;5045286;28;20107;-63
2023/07/13 01:06:36;;;;;;;1.55;0.65;;;20.60;91.30;;;;;;5023734;28;20026;-63
2023/07/13 01:09:02;;;;;;;2.55;0.88;;;20.60;91.70;;;;;;5032315;28;20056;-63
2023/07/13 01:11:28;;;;;;;5.00;0.98;;;20.60;92.00;;;;;;5031570;28;20037;-63
2023/07/13 01:13:54;;;;;;;1.65;0.70;;;20.50;92.40;;;;;;5033482;28;20049;-62
2023/07/13 01:16:27;;;;;;;4.53;1.55;;;20.50;93.00;;;;;;5036693;28;20041;-63
2023/07/13 01:18:58;;;;;;;2.55;0.70;;;20.40;93.10;;;;;;5029372;28;20047;-62
2023/07/13 01:21:25;;;;;;;2.42;1.00;;;20.40;93.40;;;;;;5025860;28;20618;-62
2023/07/13 01:23:51;;;;;;;6.18;1.40;;;20.50;93.90;;;;;;5030089;28;20402;-64
2023/07/13 01:26:17;;;;;;;2.47;1.15;;;20.40;94.10;;;;;;5028715;28;20111;-64
2023/07/13 01:28:43;;;;;;;2.47;1.25;;;20.50;93.70;;;;;;5017778;28;20095;-64
2023/07/13 01:31:09;;;;;;;3.92;1.50;;;20.50;94.00;;;;;;5019844;28;20039;-63
2023/07/13 01:33:39;;;;;;;2.40;1.10;;;20.20;94.50;;;;;;5026675;28;20074;-64
2023/07/13 01:36:09;;;;;;;3.55;1.20;;;20.20;95.20;;;;;;5018225;28;20116;-63
2023/07/13 01:38:36;;;;;;;1.98;0.82;;;20.10;95.30;;;;;;5044701;28;20025;-63
2023/07/13 01:41:03;;;;;;;1.08;0.60;;;20.20;95.30;;;;;;5010494;28;20037;-63
2023/07/13 01:43:29;;;;;;;2.20;0.90;;;20.10;95.20;;;;;;5036571;28;20021;-63
2023/07/13 01:45:55;;;;;;;1.60;0.85;;;20.10;95.00;;;;;;5031913;28;20119;-63
2023/07/13 01:48:21;;;;;;;1.70;1.02;;;20.00;95.20;;;;;;5042280;28;20117;-63
2023/07/13 01:50:47;;;;;;;5.80;2.03;;;20.00;95.50;;;;;;5019802;28;20079;-62
2023/07/13 01:53:13;;;;;;;2.40;1.17;;;19.90;95.90;;;;;;5022122;28;20037;-63
2023/07/13 01:55:39;;;;;;;3.38;0.82;;;20.00;95.80;;;;;;5007574;28;20091;-63
2023/07/13 01:58:05;;;;;;;2.63;1.08;;;20.00;96.10;;;;;;5031641;28;20044;-64
2023/07/13 02:00:32;;;;;;;2.65;0.93;;;19.90;96.40;;;;;;5019879;28;20059;-63
2023/07/13 02:02:58;;;;;;;4.03;1.40;;;19.90;96.70;;;;;;5019408;28;20129;-64
2023/07/13 02:05:24;;;;;;;1.92;0.98;;;19.80;97.00;;;;;;5010662;28;20443;-63
2023/07/13 02:07:51;;;;;;;4.88;1.25;;;19.80;97.40;;;;;;5038387;28;20029;-64
2023/07/13 02:10:17;;;;;;;3.13;0.88;;;19.80;97.70;;;;;;5008482;28;20033;-64
2023/07/13 02:12:43;;;;;;;1.60;0.90;;;19.70;98.10;;;;;;5029357;28;20022;-63
2023/07/13 02:15:10;;;;;;;4.00;1.05;;;19.70;98.30;;;;;;5008176;28;20064;-64
2023/07/13 02:17:36;;;;;;;3.55;1.38;;;19.70;98.20;;;;;;5043326;28;20395;-64
2023/07/13 02:20:04;;;;;;;3.05;1.17;;;19.70;98.30;;;;;;5041424;28;20029;-63
2023/07/13 02:22:30;;;;;;;6.28;1.50;;;19.70;98.40;;;;;;5027913;28;20033;-63
2023/07/13 02:24:56;;;;;;;1.83;1.02;;;19.70;98.80;;;;;;5040562;28;20095;-64
2023/07/13 02:27:22;;;;;;;3.17;1.20;;;19.60;98.80;;;;;;5045436;28;20033;-64
2023/07/13 02:29:48;;;;;;;4.78;1.50;;;19.50;99.10;;;;;;5042472;28;20026;-64
2023/07/13 02:32:13;;;;;;;3.83;1.30;;;19.50;99.10;;;;;;5044158;28;20039;-64
2023/07/13 02:34:41;;;;;;;2.03;1.02;;;19.50;98.90;;;;;;5044265;28;20509;-64
2023/07/13 02:37:07;;;;;;;1.92;0.88;;;19.50;99.10;;;;;;5042295;28;20032;-64
2023/07/13 02:39:33;;;;;;;5.00;1.10;;;19.40;99.80;;;;;;5028130;28;20046;-64
2023/07/13 02:44:27;;;;;;;3.15;1.38;;;19.40;99.80;;;;;;5030350;28;20038;-64
2023/07/13 02:46:52;;;;;;;2.53;0.93;;;19.40;99.70;;;;;;5032233;28;20448;-64
2023/07/13 02:49:18;;;;;;;4.10;1.20;;;19.50;99.70;;;;;;5025355;28;20129;-64
2023/07/13 02:51:44;;;;;;;2.40;0.95;;;19.50;99.90;;;;;;5033410;28;20108;-64
2023/07/13 02:54:11;;;;;;;4.20;1.05;;;19.50;99.80;;;;;;5025418;28;20068;-64
2023/07/13 02:56:38;;;;;;;3.65;1.30;;;19.40;99.90;;;;;;5033266;28;20029;-64
2023/07/13 02:59:04;;;;;;;2.97;1.00;;;19.30;99.90;;;;;;5025305;28;20069;-64
2023/07/13 03:01:33;;;;;;;2.95;0.70;;;19.30;99.90;;;;;;5032893;28;20450;-65
2023/07/13 03:03:59;;;;;;;2.53;1.00;;;19.20;99.90;;;;;;5040372;28;20041;-65
2023/07/13 03:06:25;;;;;;;1.60;0.80;;;19.20;99.90;;;;;;5034352;28;20037;-65
2023/07/13 03:08:51;;;;;;;3.67;1.10;;;19.10;99.90;;;;;;5029682;28;20047;-65
2023/07/13 03:11:20;;;;;;;1.27;0.88;;;19.10;99.90;;;;;;5040242;28;20021;-65
2023/07/13 03:13:46;;;;;;;1.63;0.60;;;19.10;99.90;;;;;;5012393;28;20037;-65
2023/07/13 03:16:15;;;;;;;1.50;0.75;;;19.00;99.90;;;;;;5023307;28;20037;-65
2023/07/13 03:18:42;;;;;;;1.23;0.63;;;19.00;99.90;;;;;;5008215;28;20037;-63
2023/07/13 03:21:08;;;;;;;2.17;1.05;;;18.90;99.90;;;;;;5022979;28;20029;-65
2023/07/13 03:23:34;;;;;;;2.97;1.02;;;19.00;99.90;;;;;;5025116;28;20113;-65
2023/07/13 03:26:12;;;;;;;2.00;1.00;;;18.90;99.90;;;;;;5032529;28;20104;-65
2023/07/13 03:28:38;;;;;;;2.67;1.02;;;18.90;99.90;;;;;;5007698;28;20049;-65
2023/07/13 03:31:17;;;;;;;1.80;1.15;;;18.80;99.90;;;;;;5032582;28;20030;-65
2023/07/13 03:33:44;;;;;;;3.90;0.90;;;18.70;99.90;;;;;;5024579;28;20109;-65
2023/07/13 03:36:18;;;;;;;2.63;1.20;;;18.70;99.90;;;;;;5033974;28;20141;-65
2023/07/13 03:38:51;;;;;;;3.50;0.98;;;18.70;99.90;;;;;;5012392;28;20112;-65
2023/07/13 03:41:17;;;;;;;1.52;0.85;;;18.70;99.90;;;;;;5023060;28;20040;-65
2023/07/13 03:43:43;;;;;;;2.17;0.90;;;18.70;99.90;;;;;;5023934;28;20129;-65
2023/07/13 03:46:09;;;;;;;1.85;1.00;;;18.50;99.90;;;;;;5031992;28;20072;-64
2023/07/13 03:48:35;;;;;;;1.58;0.70;;;18.70;99.90;;;;;;5024750;28;20031;-65
2023/07/13 03:51:01;;;;;;;1.63;1.00;;;18.60;99.90;;;;;;5031966;28;20026;-64
2023/07/13 03:53:27;;;;;;;3.17;1.17;;;18.20;99.90;;;;;;5024191;28;20034;-64
2023/07/13 03:55:53;;;;;;;1.35;0.90;;;18.40;99.90;;;;;;5031971;28;20152;-65
2023/07/13 03:58:37;;;;;;;2.22;0.75;;;18.40;99.90;;;;;;5025984;28;20045;-65
2023/07/13 04:01:05;;;;;;;3.28;0.75;;;18.30;99.90;;;;;;5018402;28;20040;-63
2023/07/13 04:03:33;;;;;;;1.63;0.90;;;18.30;99.90;;;;;;5014441;28;20033;-66
2023/07/13 04:06:05;;;;;;;2.58;0.98;;;18.20;99.90;;;;;;5014065;28;20072;-61
2023/07/13 04:08:35;;;;;;;5.47;2.03;;;18.10;99.90;;;;;;5035336;28;20068;-64
2023/07/13 04:11:02;;;;;;;3.63;1.65;;;18.00;99.90;;;;;;5043184;28;20112;-64
2023/07/13 04:13:28;;;;;;;5.15;1.38;;;18.20;99.90;;;;;;5021376;28;20499;-63
2023/07/13 04:15:54;;;;;;;1.98;0.93;;;18.00;99.90;;;;;;5016727;28;20038;-62
2023/07/13 04:18:21;;;;;;;2.28;1.08;;;18.20;99.90;;;;;;5023874;28;20730;-62
2023/07/13 04:20:47;;;;;;;2.53;1.50;;;18.20;99.90;;;;;;5029717;28;20053;-62
2023/07/13 04:23:13;;;;;;;4.53;2.38;;;18.30;99.90;;;;;;5020733;28;20049;-63
2023/07/13 04:25:44;;;;;;;2.35;1.27;;;18.30;99.90;;;;;;5034748;28;20033;-62
2023/07/13 04:28:10;;;;;;;27.27;12.05;;;18.30;99.90;;;;;;5004627;28;20034;-62
2023/07/13 04:30:36;;;;;;;9.85;3.00;;;18.50;99.90;;;;;;5020565;28;20084;-64
2023/07/13 04:33:01;;;;;;;2.10;0.82;;;18.60;99.90;;;;;;5022796;28;20543;-61
2023/07/13 04:35:27;;;;;;;4.72;1.65;;;18.50;99.90;;;;;;5030763;28;20572;-62
2023/07/13 04:37:53;;;;;;;6.88;4.10;;;18.50;99.90;;;;;;5034274;28;20040;-63
2023/07/13 04:40:20;;;;;;;2.67;1.13;;;18.40;99.90;;;;;;5040490;28;20033;-61
2023/07/13 04:42:46;;;;;;;3.55;1.58;;;18.50;99.90;;;;;;5014658;28;20069;-61
2023/07/13 04:45:17;;;;;;;5.93;1.63;;;18.40;99.90;;;;;;5021314;28;20644;-65
2023/07/13 04:47:43;;;;;;;4.18;1.40;;;18.40;99.90;;;;;;5024903;28;20046;-62
2023/07/13 04:50:10;;;;;;;2.50;1.17;;;18.50;99.90;;;;;;5035183;28;20124;-64
2023/07/13 04:52:37;;;;;;;2.22;1.15;;;18.50;99.90;;;;;;5025351;28;20028;-64
2023/07/13 04:55:03;;;;;;;7.15;2.00;;;18.50;99.90;;;;;;5028341;28;20542;-65
2023/07/13 04:57:29;;;;;;;3.53;1.73;;;18.50;99.90;;;;;;5026640;28;20522;-63
2023/07/13 04:59:55;;;;;;;2.65;1.27;;;18.60;99.90;;;;;;5027402;28;20116;-63
2023/07/13 05:02:21;;;;;;;4.18;1.77;;;18.60;99.90;;;;;;5011914;28;20087;-63
2023/07/13 05:04:48;;;;;;;7.15;1.80;;;18.70;99.90;;;;;;5030543;28;20117;-64
2023/07/13 05:07:14;;;;;;;5.53;1.42;;;18.70;99.90;;;;;;5012803;28;20115;-63
2023/07/13 05:09:40;;;;;;;4.18;1.27;;;18.70;99.90;;;;;;5037646;28;20124;-63
2023/07/13 05:12:08;;;;;;;5.10;2.25;;;18.70;99.90;;;;;;5036558;28;20029;-63
2023/07/13 05:14:34;;;;;;;2.60;1.05;;;18.70;99.90;;;;;;5029224;28;20052;-66
2023/07/13 05:17:00;;;;;;;1.70;1.00;;;18.50;99.90;;;;;;5009471;28;20076;-67
2023/07/13 05:19:26;;;;;;;3.75;1.35;;;18.40;99.90;;;;;;5021529;28;20112;-66
2023/07/13 05:21:52;;;;;;;2.42;0.88;;;18.70;99.90;;;;;;5031372;28;20480;-67
2023/07/13 05:24:18;;;;;;;3.65;1.23;;;18.60;99.90;;;;;;5026679;28;20036;-67
2023/07/13 05:26:44;;;;;;;4.68;1.60;;;18.60;99.90;;;;;;5014877;28;20057;-66
2023/07/13 05:29:10;;;;;;;2.05;1.05;;;18.80;99.90;;;;;;5015307;28;20034;-69
2023/07/13 05:31:36;;;;;;;2.60;1.42;;;18.80;99.90;;;;;;5038472;28;20017;-72
2023/07/13 05:34:02;;;;;;;3.97;1.13;;;18.50;99.90;;;;;;5029595;28;20045;-75
2023/07/13 05:36:28;;;;;;;5.55;1.40;;;18.50;99.90;;;;;;5018950;28;20037;-68
2023/07/13 05:38:54;;;;;;;5.22;1.63;;;18.60;99.90;;;;;;5020177;28;20033;-68
2023/07/13 05:41:20;;;;;;;3.85;1.70;;;18.60;99.90;;;;;;5029457;28;20692;-68
2023/07/13 05:43:46;;;;;;;1.90;0.82;;;18.70;99.90;;;;;;5021978;28;20111;-69
2023/07/13 05:46:11;;;;;;;4.03;1.42;;;18.80;99.90;;;;;;5029238;28;20060;-68
2023/07/13 05:48:37;;;;;;;3.22;1.05;;;18.90;99.90;;;;;;5022032;28;20033;-68
2023/07/13 05:51:03;;;;;;;2.42;0.93;;;19.00;99.90;;;;;;5030349;28;20117;-68
2023/07/13 05:53:28;;;;;;;2.70;1.30;;;19.10;99.90;;;;;;5025328;28;20039;-68
2023/07/13 05:55:55;;;;;;;2.45;0.80;;;19.20;99.90;;;;;;5033863;28;20033;-68
2023/07/13 05:58:21;;;;;;;1.80;1.08;;;19.30;99.90;;;;;;5008836;28;20033;-69
2023/07/13 06:00:48;;;;;;;5.30;1.20;;;19.40;99.90;;;;;;5037698;28;20079;-68
2023/07/13 06:03:15;;;;;;;3.00;1.17;;;19.60;99.90;;;;;;5018752;28;20036;-66
2023/07/13 06:05:41;;;;;;;6.70;0.70;;;19.60;99.90;;;;;;5023585;28;20488;-63
2023/07/13 06:08:08;;;;;;;3.13;1.00;;;19.70;99.90;;;;;;5026142;28;20046;-64
2023/07/13 06:10:37;;;;;;;1.85;0.60;;;19.70;99.90;;;;;;5027905;28;20032;-62
2023/07/13 06:13:03;;;;;;;1.73;1.02;;;19.70;99.90;;;;;;5026904;28;20030;-62
2023/07/13 06:15:28;;;;;;;7.38;1.20;;;19.50;99.90;;;;;;5031939;28;20033;-62
2023/07/13 06:17:54;;;;;;;3.28;0.70;;;19.40;99.90;;;;;;4996325;28;20382;-62
2023/07/13 06:20:20;;;;;;;3.28;1.42;;;19.40;99.90;;;;;;5041060;28;20048;-62
2023/07/13 06:22:46;;;;;;;3.85;1.05;;;19.40;99.90;;;;;;5010406;28;20045;-62
2023/07/13 06:25:11;;;;;;;2.38;1.17;;;19.60;99.90;;;;;;5032594;28;20475;-62
2023/07/13 06:27:37;;;;;;;1.20;0.70;;;19.60;99.90;;;;;;5028038;28;20042;-62
2023/07/13 06:30:03;;;;;;;5.10;1.23;;;19.50;99.90;;;;;;5029091;28;20028;-62
2023/07/13 06:32:29;;;;;;;1.70;0.98;;;19.70;99.90;;;;;;5030930;28;20083;-64
2023/07/13 06:34:55;;;;;;;3.13;1.10;;;19.80;99.90;;;;;;5028562;28;20489;-62
2023/07/13 06:37:20;;;;;;;0.82;0.70;;;19.90;99.90;;;;;;5030401;28;20033;-64
2023/07/13 06:39:46;;;;;;;1.83;1.20;;;20.00;99.90;;;;;;5029091;28;20021;-64
2023/07/13 06:42:12;;;;;;;1.60;0.82;;;20.10;99.90;;;;;;5030820;28;20045;-63
2023/07/13 06:44:37;;;;;;;3.38;1.10;;;20.20;99.90;;;;;;5027755;28;20068;-62
2023/07/13 06:47:03;;;;;;;4.93;1.08;;;20.20;99.90;;;;;;5031939;28;20061;-58
2023/07/13 06:49:29;;;;;;;3.25;1.10;;;20.00;99.90;;;;;;5026694;28;20061;-64
2023/07/13 06:51:55;;;;;;;5.68;1.30;;;19.80;99.90;;;;;;5032861;28;20079;-61
2023/07/13 06:54:21;;;;;;;2.00;0.60;;;19.90;99.90;;;;;;5025273;28;20048;-62
2023/07/13 06:56:46;;;;;;;1.58;0.77;;;19.70;99.90;;;;;;5033142;28;20037;-63
2023/07/13 06:59:12;;;;;;;1.00;0.55;;;19.80;99.90;;;;;;5011594;28;20382;-62
2023/07/13 07:01:38;;;;;;;6.25;0.73;;;19.90;99.90;;;;;;5032860;28;20025;-62
2023/07/13 07:04:04;;;;;;;2.15;1.10;;;20.10;98.90;;;;;;5030809;28;20056;-62
2023/07/13 07:06:30;;;;;;;4.72;1.63;;;20.30;98.80;;;;;;5032519;28;20042;-63
2023/07/13 07:08:55;;;;;;;2.88;0.60;;;20.40;98.60;;;;;;5025315;28;20120;-62
2023/07/13 07:11:26;;;;;;;4.93;0.98;;;20.60;98.20;;;;;;5042984;28;20044;-63
2023/07/13 07:13:53;;;;;;;3.00;0.70;;;20.60;97.90;;;;;;5028794;28;20026;-65
2023/07/13 07:16:20;;;;;;;1.42;0.85;;;20.60;97.60;;;;;;5007035;28;20045;-62
2023/07/13 07:18:47;;;;;;;2.30;1.00;;;20.40;98.00;;;;;;5008652;28;20036;-62
2023/07/13 07:21:13;;;;;;;1.48;0.90;;;20.40;98.30;;;;;;5022020;28;20076;-62
2023/07/13 07:23:39;;;;;;;4.45;1.05;;;20.50;98.40;;;;;;5012803;28;20113;-61
2023/07/13 07:26:05;;;;;;;3.20;1.40;;;20.60;98.20;;;;;;5022862;28;20125;-62
2023/07/13 07:28:31;;;;;;;2.17;0.98;;;20.60;98.00;;;;;;5024974;28;20030;-64
2023/07/13 07:30:58;;;;;;;1.90;0.73;;;20.70;97.90;;;;;;5030118;28;20037;-62
2023/07/13 07:33:25;;;;;;;2.63;1.30;;;20.60;98.10;;;;;;5026568;28;20037;-62
2023/07/13 07:35:51;;;;;;;2.55;1.00;;;20.80;97.20;;;;;;5012881;28;20044;-62
2023/07/13 07:38:18;;;;;;;0.60;0.40;;;20.80;97.20;;;;;;5030303;28;20103;-60
2023/07/13 07:40:44;;;;;;;4.32;1.00;;;20.70;96.40;;;;;;5031973;28;20515;-62
2023/07/13 07:43:12;;;;;;;4.65;0.57;;;20.70;96.80;;;;;;5016152;28;20038;-62
2023/07/13 07:45:39;;;;;;;1.92;0.88;;;21.00;96.70;;;;;;5031965;28;20028;-62
2023/07/13 07:48:06;;;;;;;0.90;0.60;;;21.20;96.20;;;;;;5006605;28;20112;-62
2023/07/13 07:50:32;;;;;;;5.13;0.57;;;21.30;96.30;;;;;;5028223;28;20036;-62
2023/07/13 07:52:58;;;;;;;3.67;0.60;;;21.20;96.00;;;;;;5021059;28;20037;-61
2023/07/13 07:55:28;;;;;;;4.13;1.17;;;21.30;95.70;;;;;;5031382;28;20132;-62
2023/07/13 07:57:56;;;;;;;2.00;0.63;;;21.50;95.30;;;;;;5026280;28;20136;-62
2023/07/13 08:00:22;;;;;;;3.40;0.90;;;21.60;95.20;;;;;;5031591;28;20044;-62
2023/07/13 08:02:48;;;;;;;1.65;0.63;;;21.60;95.00;;;;;;5027544;28;20025;-62
2023/07/13 08:05:14;;;;;;;1.42;0.40;;;21.50;94.70;;;;;;5034072;28;20037;-62
2023/07/13 08:07:40;;;;;;;0.88;0.35;;;21.50;95.00;;;;;;5036855;28;20034;-62
2023/07/13 08:10:07;;;;;;;3.83;0.95;;;21.60;95.00;;;;;;5029581;28;20490;-62
2023/07/13 08:12:38;;;;;;;1.85;0.47;;;21.50;94.70;;;;;;5042420;28;20028;-61
2023/07/13 08:15:06;;;;;;;1.48;0.68;;;21.80;95.00;;;;;;5011443;28;20026;-63
2023/07/13 08:17:32;;;;;;;2.17;0.50;;;22.00;94.20;;;;;;5031373;28;20520;-61
2023/07/13 08:19:57;;;;;;;2.58;0.60;;;22.00;93.90;;;;;;5045136;28;20052;-62
2023/07/13 08:22:23;;;;;;;1.25;0.50;;;22.20;93.30;;;;;;5033172;28;20057;-62
2023/07/13 08:24:55;;;;;;;3.97;0.68;;;22.30;93.20;;;;;;5047979;28;20037;-76
2023/07/13 08:27:23;;;;;;;0.90;0.40;;;22.20;93.20;;;;;;5036507;28;20032;-78
2023/07/13 08:29:50;;;;;;;3.35;0.80;;;22.30;93.40;;;;;;5030479;28;20035;-76
2023/07/13 08:32:17;;;;;;;1.08;0.40;;;22.40;92.70;;;;;;5037416;28;20123;-77
2023/07/13 08:34:44;;;;;;;3.05;0.75;;;22.30;92.90;;;;;;5012615;28;20140;-81
2023/07/13 08:37:10;;;;;;;5.03;1.08;;;22.50;92.90;;;;;;5019176;28;20026;-78
2023/07/13 08:39:36;;;;;;;1.77;0.52;;;22.50;92.80;;;;;;5013397;28;20030;-79
2023/07/13 08:42:44;;;;;;;2.22;0.73;;;22.60;92.60;;;;;;5028394;28;20049;-78
2023/07/13 08:45:42;;;;;;;1.20;0.50;;;22.80;92.00;;;;;;5035118;22;20071;-75
2023/07/13 08:48:26;;;;;;;1.65;0.50;;;23.00;91.70;;;;;;5045282;28;20040;-76
2023/07/13 08:51:29;;;;;;;1.15;0.30;;;23.10;92.20;;;;;;5030185;28;20035;-75
2023/07/13 08:54:21;;;;;;;1.58;0.35;;;23.00;91.80;;;;;;5050137;28;20041;-76
2023/07/13 08:56:52;;;;;;;1.00;0.50;;;23.10;92.10;;;;;;5009562;28;20091;-75
2023/07/13 08:59:25;;;;;;;4.20;0.60;;;23.10;91.90;;;;;;4998359;28;20076;-75
2023/07/13 09:02:28;;;;;;;4.97;0.90;;;23.30;91.30;;;;;;5013455;28;20033;-75
2023/07/13 09:05:16;;;;;;;1.35;0.47;;;23.50;90.80;;;;;;5014414;28;20033;-74
2023/07/13 09:08:16;;;;;;;1.52;0.70;;;23.40;91.00;;;;;;5012547;28;20393;-74
2023/07/13 09:10:46;;;;;;;0.88;0.45;;;23.40;91.10;;;;;;5016387;28;20119;-74
2023/07/13 09:13:58;;;;;;;0.77;0.40;;;23.40;91.00;;;;;;5029508;28;20029;-75
2023/07/13 09:16:24;;;;;;;1.20;0.60;;;23.40;90.40;;;;;;5022201;28;20056;-71
2023/07/13 09:18:55;;;;;;;1.58;0.60;;;23.40;90.10;;;;;;5012990;28;20048;-76
2023/07/13 09:21:37;;;;;;;2.42;0.65;;;23.50;90.50;;;;;;5012695;28;20037;-75
2023/07/13 09:24:32;;;;;;;3.65;0.50;;;23.60;90.40;;;;;;5034732;28;20029;-76
2023/07/13 09:26:58;;;;;;;1.75;0.70;;;23.60;89.50;;;;;;5036623;28;20120;-76
2023/07/13 09:29:37;;;;;;;1.67;0.57;;;23.60;88.60;;;;;;5012160;28;20037;-71
2023/07/13 09:32:09;;;;;;;2.22;0.68;;;23.60;89.80;;;;;;5034552;28;20037;-75
2023/07/13 09:34:34;;;;;;;1.38;0.50;;;23.80;89.70;;;;;;5027722;28;20094;-74
2023/07/13 09:37:00;;;;;;;1.48;0.60;;;23.70;87.80;;;;;;5029844;28;20339;-72
2023/07/13 09:39:40;;;;;;;2.13;1.02;;;23.90;88.40;;;;;;5029646;28;20041;-77
2023/07/13 09:42:15;;;;;;;2.08;0.93;;;23.90;87.70;;;;;;5013039;28;20527;-75
2023/07/13 09:44:47;;;;;;;4.32;1.10;;;24.00;87.40;;;;;;5029239;28;20038;-79
2023/07/13 09:47:29;;;;;;;0.43;0.30;;;24.20;88.00;;;;;;5030083;28;20148;-74
2023/07/13 09:49:59;;;;;;;2.65;0.57;;;24.40;87.80;;;;;;5029508;28;20384;-74
2023/07/13 09:52:27;;;;;;;0.30;0.20;;;24.50;86.40;;;;;;5029735;28;20043;-73
2023/07/13 09:54:59;;;;;;;0.88;0.60;;;24.30;88.00;;;;;;5029427;28;20072;-73
2023/07/13 09:57:27;;;;;;;2.63;0.75;;;24.10;88.70;;;;;;5012880;28;20021;-74
2023/07/13 09:59:56;;;;;;;3.05;0.80;;;24.10;87.30;;;;;;4990373;28;20066;-80
2023/07/13 10:02:33;;;;;;;1.00;0.43;;;24.10;86.60;;;;;;5015733;28;20025;-72
2023/07/13 10:05:07;;;;;;;2.50;0.60;;;24.10;84.50;;;;;;5029030;28;20044;-75
2023/07/13 10:07:40;;;;;;;1.38;0.50;;;24.30;83.90;;;;;;5032455;28;20049;-75
2023/07/13 10:10:19;;;;;;;0.70;0.47;;;24.40;82.90;;;;;;5028950;28;20563;-74
2023/07/13 10:12:46;;;;;;;0.47;0.35;;;24.30;84.10;;;;;;5019439;28;20033;-71
2023/07/13 10:15:24;;;;;;;2.42;0.70;;;24.00;84.00;;;;;;5015260;28;20026;-76
2023/07/13 10:17:55;;;;;;;1.30;0.52;;;23.90;85.10;;;;;;5012823;28;20036;-77
2023/07/13 10:20:22;;;;;;;1.80;0.60;;;24.10;85.00;;;;;;5011496;28;20021;-76
2023/07/13 10:23:11;;;;;;;1.13;0.60;;;24.30;85.30;;;;;;5029630;28;20022;-77
2023/07/13 10:25:42;;;;;;;1.90;0.30;;;24.30;83.10;;;;;;5011776;28;20065;-72
2023/07/13 10:28:29;;;;;;;3.00;0.60;;;24.30;81.20;;;;;;5012142;28;20026;-76
2023/07/13 10:30:58;;;;;;;1.60;0.57;;;24.20;81.30;;;;;;5029100;28;20032;-82
2023/07/13 10:33:24;;;;;;;3.05;0.98;;;24.20;81.80;;;;;;5011547;28;20033;-79
2023/07/13 10:35:58;;;;;;;0.63;0.30;;;24.10;82.10;;;;;;5011742;28;20033;-83
2023/07/13 10:38:27;;;;;;;2.13;0.50;;;24.00;82.30;;;;;;5014166;28;20041;-83
2023/07/13 10:41:05;;;;;;;0.85;0.57;;;24.00;82.60;;;;;;5033030;28;20048;-83
2023/07/13 10:43:43;;;;;;;4.38;0.88;;;24.10;82.50;;;;;;5015879;28;20037;-83
2023/07/13 10:46:15;;;;;;;1.30;0.50;;;24.30;82.50;;;;;;5015158;28;20047;-84
2023/07/13 10:48:44;;;;;;;0.82;0.35;;;24.50;81.90;;;;;;5016311;28;20124;-84
2023/07/13 10:51:12;;;;;;;0.90;0.43;;;24.90;80.40;;;;;;5015334;28;20036;-84
2023/07/13 10:53:42;;;;;;;2.38;0.50;;;25.30;80.10;;;;;;5015466;28;20029;-84
2023/07/13 10:56:12;;;;;;;2.37;0.60;;;25.50;78.30;;;;;;5015405;28;20033;-84
2023/07/13 10:58:39;;;;;;;2.23;0.93;;;25.30;78.10;;;;;;5033326;28;20132;-84
2023/07/13 11:01:18;;;;;;;1.65;0.52;;;25.50;76.60;;;;;;5032960;28;20374;-85
2023/07/13 11:03:43;;;;;;;3.05;0.45;;;25.70;76.70;;;;;;5015268;28;20060;-85
2023/07/13 11:06:33;;;;;;;3.40;0.45;;;25.70;75.80;;;;;;5032547;28;20095;-83
2023/07/13 11:09:21;;;;;;;1.83;0.93;;;25.80;74.40;;;;;;5018574;28;20026;-84
2023/07/13 11:11:47;;;;;;;0.80;0.55;;;26.10;71.70;;;;;;5028772;28;20473;-84
2023/07/13 11:15:02;;;;;;;1.88;0.40;;;26.40;71.40;;;;;;5011166;28;20025;-84
2023/07/13 11:17:59;;;;;;;1.45;0.40;;;26.30;70.60;;;;;;5021142;28;20039;-82
2023/07/13 11:20:52;;;;;;;0.80;0.35;;;25.60;70.80;;;;;;5004637;28;20259;-83
2023/07/13 11:23:28;;;;;;;1.10;0.45;;;25.40;71.10;;;;;;4993733;28;20107;-83
2023/07/13 11:25:54;;;;;;;1.45;0.43;;;25.30;72.00;;;;;;5019026;28;20041;-83
2023/07/13 11:28:27;;;;;;;0.80;0.45;;;25.60;71.10;;;;;;5021569;28;20048;-83
2023/07/13 11:30:55;;;;;;;0.68;0.30;;;25.60;71.20;;;;;;5003543;28;20044;-83
2023/07/13 11:33:31;;;;;;;0.40;0.30;;;25.10;69.70;;;;;;5019730;28;20157;-84
2023/07/13 11:35:56;;;;;;;0.70;0.47;;;25.00;70.50;;;;;;5011340;28;20029;-85
2023/07/13 11:38:32;;;;;;;1.17;0.35;;;25.20;70.10;;;;;;5019474;28;20041;-84
2023/07/13 11:41:03;;;;;;;0.73;0.32;;;25.50;69.60;;;;;;5002434;28;20038;-83
2023/07/13 11:43:29;;;;;;;1.23;0.50;;;25.30;69.60;;;;;;5002115;28;20665;-83
2023/07/13 11:45:55;;;;;;;3.10;0.50;;;25.60;69.90;;;;;;5018658;28;20061;-84
2023/07/13 11:48:31;;;;;;;1.65;0.63;;;26.10;69.70;;;;;;4996256;28;20878;-84
2023/07/13 11:51:03;;;;;;;1.85;0.80;;;26.20;68.90;;;;;;5020711;28;20033;-83
2023/07/13 11:53:37;;;;;;;1.58;0.60;;;26.30;68.80;;;;;;5013729;28;20112;-84
2023/07/13 11:56:03;;;;;;;2.83;0.60;;;25.90;68.40;;;;;;5012316;28;20033;-85
2023/07/13 11:58:30;;;;;;;1.38;0.47;;;26.00;69.50;;;;;;5002944;28;20037;-84
2023/07/13 12:01:01;;;;;;;1.08;0.38;;;25.90;68.40;;;;;;5001688;28;20095;-84
2023/07/13 12:03:28;;;;;;;0.50;0.32;;;26.00;68.10;;;;;;5002627;28;20092;-83
2023/07/13 12:06:27;;;;;;;1.70;0.70;;;26.30;67.80;;;;;;5019031;28;20736;-83
2023/07/13 12:09:00;;;;;;;2.38;0.85;;;26.60;67.40;;;;;;4994174;28;20049;-83
2023/07/13 12:11:27;;;;;;;0.47;0.28;;;26.80;65.40;;;;;;5019793;28;20037;-83
2023/07/13 12:13:54;;;;;;;0.43;0.30;;;26.90;66.50;;;;;;5017365;28;20065;-83
2023/07/13 12:16:34;;;;;;;2.28;0.90;;;27.10;63.80;;;;;;5012831;28;20037;-78
2023/07/13 12:19:02;;;;;;;2.22;0.50;;;27.20;64.80;;;;;;4999686;28;20123;-76
2023/07/13 12:21:37;;;;;;;1.02;0.45;;;26.30;66.00;;;;;;5002405;28;20025;-74
2023/07/13 12:24:05;;;;;;;2.53;0.63;;;26.20;66.80;;;;;;5013310;28;20132;-82
2023/07/13 12:26:32;;;;;;;1.67;0.73;;;26.10;66.70;;;;;;5001217;28;20037;-82
2023/07/13 12:29:05;;;;;;;0.60;0.35;;;25.80;67.20;;;;;;4997440;28;20104;-73
2023/07/13 12:31:43;;;;;;;0.60;0.40;;;25.80;68.00;;;;;;5022638;28;20513;-73
2023/07/13 12:34:14;;;;;;;1.50;0.60;;;25.70;67.90;;;;;;5009135;28;20033;-74
2023/07/13 12:37:01;;;;;;;1.20;0.47;;;25.80;68.10;;;;;;5013200;28;20044;-73
2023/07/13 12:39:47;;;;;;;1.73;0.50;;;25.60;67.90;;;;;;5006123;28;20033;-73
2023/07/13 12:42:27;;;;;;;0.88;0.30;;;25.50;68.70;;;;;;5021205;28;20210;-73
2023/07/13 12:45:25;;;;;;;1.20;0.50;;;25.50;68.50;;;;;;5012694;28;20052;-74
2023/07/13 12:47:59;;;;;;;4.38;0.43;;;25.60;67.10;;;;;;5029898;28;20481;-73
2023/07/13 12:50:52;;;;;;;0.68;0.30;;;26.00;66.40;;;;;;4996240;28;20439;-73
2023/07/13 12:53:30;;;;;;;1.30;0.57;;;26.10;65.30;;;;;;5030286;28;20498;-73
2023/07/13 12:56:03;;;;;;;2.15;0.43;;;26.40;65.90;;;;;;5008947;28;20524;-74
2023/07/13 12:58:36;;;;;;;1.60;0.90;;;26.50;63.60;;;;;;5013292;28;20025;-74
2023/07/13 13:01:05;;;;;;;1.52;0.77;;;26.30;64.50;;;;;;5005101;28;20421;-73
2023/07/13 13:03:47;;;;;;;2.30;0.28;;;26.10;64.00;;;;;;5012216;28;20044;-72
2023/07/13 13:06:19;;;;;;;1.48;0.47;;;25.80;64.30;;;;;;5027543;28;20037;-73